Time;durP1;ratioP1;P1;durP2;ratioP2;P2;SDS_P1;SDS_P2;PMS_P1;PMS_P2;Temp;Humidity;BMP_temperature;BMP_pressure;BME280_temperature;BME280_humidity;BME280_pressure;Samples;Min_cycle;Max_cycle;Signal;HPM_P1;HPM_P2
2023/12/22 00:00:52;;;;;;;0.80;0.80;;;;;;;7.01;48.01;99522.53;4787119;29;20423;-88
2023/12/22 00:03:18;;;;;;;0.70;0.70;;;;;;;7.14;47.48;99511.38;4801900;29;20409;-87
2023/12/22 00:05:44;;;;;;;0.25;0.25;;;;;;;7.19;47.12;99511.69;4771354;30;20480;-88
2023/12/22 00:08:10;;;;;;;1.58;1.50;;;;;;;7.19;47.10;99511.69;4771783;30;20420;-88
2023/12/22 00:10:35;;;;;;;0.77;0.68;;;;;;;7.02;47.56;99509.19;4771013;30;20940;-88
2023/12/22 00:13:01;;;;;;;0.93;0.85;;;;;;;6.99;48.21;99521.88;4771970;30;20416;-89
2023/12/22 00:15:27;;;;;;;0.82;0.68;;;;;;;7.07;47.68;99519.97;4801433;29;20457;-90
2023/12/22 00:17:55;;;;;;;5.70;3.63;;;;;;;7.02;47.80;99511.81;4801542;29;20419;-88
2023/12/22 00:20:24;;;;;;;0.20;0.20;;;;;;;7.12;47.68;99516.03;4770679;30;20499;-87
2023/12/22 00:22:50;;;;;;;0.57;0.57;;;;;;;7.11;47.75;99509.09;4771516;30;20436;-87
2023/12/22 00:25:15;;;;;;;0.33;0.33;;;;;;;7.13;47.62;99501.81;4801092;29;20436;-89
2023/12/22 00:27:41;;;;;;;1.90;0.90;;;;;;;6.95;47.67;99489.81;4786311;30;20487;-87
2023/12/22 00:30:07;;;;;;;0.22;0.22;;;;;;;6.98;47.60;99489.44;4786214;30;20408;-87
2023/12/22 00:32:36;;;;;;;1.03;0.73;;;;;;;7.07;47.58;99485.72;4786342;30;20906;-89
2023/12/22 00:35:09;;;;;;;0.10;0.10;;;;;;;7.09;47.35;99488.19;4771372;30;20424;-88
2023/12/22 00:37:35;;;;;;;0.50;0.50;;;;;;;7.18;47.47;99481.03;4801265;29;20448;-88
2023/12/22 00:40:05;;;;;;;0.70;0.63;;;;;;;7.22;47.35;99487.56;4771373;30;20423;-88
2023/12/22 00:42:31;;;;;;;4.40;4.10;;;;;;;7.26;47.36;99491.53;4771439;30;20457;-88
2023/12/22 00:44:59;;;;;;;0.43;0.43;;;;;;;7.22;47.27;99482.31;4801265;29;20416;-89
2023/12/22 00:47:24;;;;;;;2.63;2.22;;;;;;;7.30;47.36;99484.88;4801096;29;20427;-87
2023/12/22 00:49:50;;;;;;;0.57;0.50;;;;;;;7.25;47.30;99488.03;4785958;30;20408;-87
2023/12/22 00:52:16;;;;;;;1.13;1.07;;;;;;;7.28;47.60;99490.31;4801532;29;20501;-89
2023/12/22 00:54:52;;;;;;;;;;;;;;;;;;;;;
2023/12/22 00:57:25;;;;;;;0.20;0.20;;;;;;;7.38;47.31;99482.19;4787456;30;20423;-89
2023/12/22 00:59:50;;;;;;;0.52;0.52;;;;;;;7.41;47.38;99484.44;4786078;30;20848;-89
2023/12/22 01:02:17;;;;;;;0.30;0.30;;;;;;;7.41;47.43;99473.91;4786311;30;20488;-92
2023/12/22 01:04:46;;;;;;;0.93;0.70;;;;;;;7.45;47.27;99477.00;4771082;30;20498;-90
2023/12/22 01:07:14;;;;;;;0.90;0.90;;;;;;;7.43;47.34;99479.00;4771108;30;20962;-90
2023/12/22 01:10:13;;;;;;;;;;;;;;;;;;;;;
2023/12/22 01:12:39;;;;;;;0.50;0.50;;;;;;;7.51;47.20;99476.28;4787184;30;20475;-88
2023/12/22 01:15:08;;;;;;;0.20;0.20;;;;;;;7.51;47.35;99462.25;4785682;30;21019;-89
2023/12/22 01:17:37;;;;;;;0.30;0.30;;;;;;;7.40;47.30;99448.53;4773163;30;20419;-89
2023/12/22 01:20:07;;;;;;;0.40;0.40;;;;;;;7.55;47.43;99450.38;4778524;30;20947;-89
2023/12/22 01:22:37;;;;;;;1.08;0.85;;;;;;;7.45;47.50;99440.91;4820921;29;20412;-90
2023/12/22 01:25:04;;;;;;;0.50;0.50;;;;;;;7.48;47.44;99437.09;4771744;30;20423;-90
2023/12/22 01:27:31;;;;;;;0.63;0.63;;;;;;;7.51;47.57;99428.81;4771672;30;20631;-90
2023/12/22 01:30:01;;;;;;;1.20;1.20;;;;;;;7.51;47.46;99422.72;4771319;30;20955;-90
2023/12/22 01:32:32;;;;;;;1.33;0.43;;;;;;;7.58;47.36;99423.63;4801569;29;20413;-91
2023/12/22 01:35:09;;;;;;;0.60;0.60;;;;;;;7.57;47.34;99420.16;4802396;29;20409;-91
2023/12/22 01:37:36;;;;;;;0.35;0.35;;;;;;;7.54;47.54;99420.53;4806065;29;20914;-91
2023/12/22 01:40:05;;;;;;;1.33;1.27;;;;;;;7.56;47.62;99408.00;4793699;30;20416;-89
2023/12/22 01:42:39;;;;;;;0.30;0.30;;;;;;;7.60;47.37;99411.91;4801065;30;20408;-87
2023/12/22 01:45:08;;;;;;;0.60;0.60;;;;;;;7.61;47.52;99399.53;4805031;29;20420;-89
2023/12/22 01:47:35;;;;;;;0.60;0.60;;;;;;;7.57;47.41;99399.06;4786417;30;20424;-89
2023/12/22 01:50:01;;;;;;;0.40;0.40;;;;;;;7.62;47.58;99394.06;4785931;29;20924;-89
2023/12/22 01:52:27;;;;;;;0.32;0.32;;;;;;;7.53;47.63;99383.81;4800805;29;20437;-89
2023/12/22 01:54:55;;;;;;;0.30;0.30;;;;;;;7.52;47.86;99377.72;4770660;30;20473;-89
2023/12/22 01:57:21;;;;;;;0.45;0.45;;;;;;;7.54;47.40;99375.69;4800826;29;20416;-89
2023/12/22 01:59:48;;;;;;;0.20;0.20;;;;;;;7.60;47.32;99379.44;4770984;30;20511;-89
2023/12/22 02:02:14;;;;;;;0.50;0.50;;;;;;;7.62;47.33;99358.97;4785649;29;20417;-90
2023/12/22 02:04:48;;;;;;;0.90;0.90;;;;;;;7.61;47.58;99354.69;4786375;30;20485;-89
2023/12/22 02:07:14;;;;;;;0.30;0.30;;;;;;;7.66;47.48;99347.88;4773973;30;20436;-91
2023/12/22 02:09:43;;;;;;;1.87;1.77;;;;;;;7.57;47.84;99334.97;4804362;29;20424;-90
2023/12/22 02:12:11;;;;;;;0.40;0.40;;;;;;;7.56;47.94;99338.59;4787872;30;20428;-89
2023/12/22 02:14:37;;;;;;;1.27;1.05;;;;;;;7.26;48.66;99336.81;4809096;29;20401;-90
2023/12/22 02:17:24;;;;;;;1.10;1.00;;;;;;;7.10;49.28;99358.09;4809306;29;20415;-90
2023/12/22 02:19:51;;;;;;;1.23;1.20;;;;;;;7.25;49.11;99335.16;4824228;29;20453;-88
2023/12/22 02:22:19;;;;;;;0.32;0.30;;;;;;;7.37;48.66;99325.00;4793858;30;20419;-89
2023/12/22 02:24:50;;;;;;;0.75;0.75;;;;;;;7.44;48.18;99325.09;4797621;30;20419;-87
2023/12/22 02:27:27;;;;;;;0.20;0.20;;;;;;;7.56;48.38;99323.63;4795016;30;20959;-87
2023/12/22 02:30:31;;;;;;;0.52;0.52;;;;;;;7.52;48.31;99324.97;4794670;30;20420;-87
2023/12/22 02:33:01;;;;;;;2.10;1.90;;;;;;;7.51;48.56;99328.63;4777178;30;20423;-86
2023/12/22 02:35:29;;;;;;;0.30;0.30;;;;;;;7.53;48.63;99317.91;4780024;30;20416;-86
2023/12/22 02:37:58;;;;;;;1.15;1.15;;;;;;;7.24;49.42;99314.28;4808103;29;20420;-86
2023/12/22 02:40:25;;;;;;;1.20;1.20;;;;;;;7.10;50.03;99309.84;4785429;30;20485;-85
2023/12/22 02:42:54;;;;;;;0.67;0.67;;;;;;;7.22;49.42;99296.03;4785178;29;20443;-86
2023/12/22 02:45:20;;;;;;;0.63;0.63;;;;;;;7.24;49.26;99303.75;4803270;29;20489;-86
2023/12/22 02:47:51;;;;;;;0.65;0.65;;;;;;;7.09;49.49;99293.19;4788771;29;20738;-86
2023/12/22 02:50:17;;;;;;;0.50;0.50;;;;;;;6.97;49.81;99292.84;4789373;30;20986;-87
2023/12/22 02:52:43;;;;;;;0.75;0.75;;;;;;;6.97;49.52;99287.56;4772447;30;20412;-86
2023/12/22 02:55:08;;;;;;;1.10;0.80;;;;;;;7.11;49.53;99279.84;4788303;30;20412;-87
2023/12/22 02:57:37;;;;;;;0.43;0.43;;;;;;;7.14;48.94;99285.56;4786987;30;20408;-88
2023/12/22 03:00:03;;;;;;;0.35;0.35;;;;;;;7.03;49.39;99268.41;4786888;30;20416;-87
2023/12/22 03:02:29;;;;;;;0.43;0.43;;;;;;;7.03;49.31;99280.75;4771111;30;20495;-85
2023/12/22 03:04:54;;;;;;;0.77;0.77;;;;;;;6.82;49.93;99289.38;4801343;29;20554;-87
2023/12/22 03:07:20;;;;;;;0.70;0.70;;;;;;;6.84;49.71;99282.09;4802636;29;20428;-89
2023/12/22 03:09:46;;;;;;;0.40;0.40;;;;;;;6.87;49.67;99273.84;4772761;30;20499;-88
2023/12/22 03:12:14;;;;;;;0.90;0.90;;;;;;;6.91;49.78;99269.84;4787556;30;20792;-87
2023/12/22 03:14:40;;;;;;;0.30;0.30;;;;;;;6.87;49.42;99269.38;4772648;30;20420;-87
2023/12/22 03:17:09;;;;;;;2.00;1.60;;;;;;;6.81;49.94;99274.59;4787492;30;20940;-88
2023/12/22 03:19:35;;;;;;;0.75;0.65;;;;;;;6.94;49.63;99284.50;4772663;30;20416;-88
2023/12/22 03:22:01;;;;;;;0.83;0.80;;;;;;;6.99;49.81;99258.41;4787943;30;20419;-88
2023/12/22 03:24:28;;;;;;;2.50;1.15;;;;;;;7.02;49.25;99252.75;4787862;30;20416;-89
2023/12/22 03:26:54;;;;;;;0.40;0.40;;;;;;;7.02;49.28;99252.75;4790299;30;20432;-88
2023/12/22 03:29:20;;;;;;;0.82;0.80;;;;;;;6.99;49.57;99237.34;4798173;29;20423;-85
2023/12/22 03:31:46;;;;;;;0.65;0.65;;;;;;;7.03;49.19;99241.25;4793268;30;20408;-88
2023/12/22 03:34:15;;;;;;;0.55;0.55;;;;;;;7.02;49.36;99245.69;4803354;29;20978;-88
2023/12/22 03:36:41;;;;;;;0.70;0.70;;;;;;;6.83;49.70;99231.25;4788049;30;20448;-89
2023/12/22 03:39:06;;;;;;;0.50;0.50;;;;;;;6.83;49.63;99233.88;4804314;29;20832;-89
2023/12/22 03:41:32;;;;;;;0.37;0.37;;;;;;;6.88;49.62;99222.81;4804310;29;20857;-89
2023/12/22 03:44:26;;;;;;;0.50;0.50;;;;;;;6.88;49.70;99213.09;4775801;30;20788;-88
2023/12/22 03:46:53;;;;;;;0.30;0.30;;;;;;;6.88;49.69;99207.00;4813776;29;20431;-89
2023/12/22 03:49:19;;;;;;;0.50;0.50;;;;;;;6.81;49.62;99192.94;4802360;30;20412;-86
2023/12/22 03:51:45;;;;;;;0.70;0.70;;;;;;;6.69;49.99;99195.19;4788571;30;20420;-88
2023/12/22 03:54:11;;;;;;;0.47;0.47;;;;;;;6.53;49.86;99195.38;4820726;29;20426;-88
2023/12/22 03:56:37;;;;;;;0.70;0.70;;;;;;;6.36;50.80;99202.66;4806507;29;20441;-91
2023/12/22 03:59:18;;;;;;;1.23;0.95;;;;;;;6.30;51.26;99219.94;4812354;29;20433;-94
2023/12/22 04:01:44;;;;;;;1.13;1.10;;;;;;;6.14;51.36;99210.41;4788521;30;20430;-93
2023/12/22 04:04:10;;;;;;;1.90;1.30;;;;;;;6.22;51.54;99220.03;4776915;30;20484;-93
2023/12/22 04:10:01;;;;;;;1.30;0.97;;;;;;;6.04;51.67;99221.16;4807335;30;20453;-91
2023/12/22 04:12:26;;;;;;;0.50;0.50;;;;;;;5.97;51.54;99222.88;4790927;30;20423;-92
2023/12/22 04:14:53;;;;;;;0.97;0.97;;;;;;;5.98;51.65;99235.03;4802975;29;20412;-89
2023/12/22 04:17:19;;;;;;;1.07;1.07;;;;;;;5.99;51.61;99236.66;4802677;29;20404;-89
2023/12/22 04:19:45;;;;;;;0.50;0.50;;;;;;;5.93;51.82;99225.00;4772265;30;20500;-88
2023/12/22 04:22:10;;;;;;;1.15;1.08;;;;;;;6.02;51.37;99232.88;4788341;29;20430;-88
2023/12/22 04:24:36;;;;;;;1.00;1.00;;;;;;;5.94;51.85;99229.28;4784223;30;20410;-88
2023/12/22 04:27:02;;;;;;;1.70;1.60;;;;;;;5.82;52.23;99222.78;4783926;30;20427;-88
2023/12/22 04:29:27;;;;;;;0.60;0.57;;;;;;;5.74;52.73;99231.56;4783703;30;20418;-87
2023/12/22 04:31:53;;;;;;;0.80;0.80;;;;;;;5.73;52.50;99222.03;4768840;30;20863;-88
2023/12/22 04:34:19;;;;;;;0.68;0.60;;;;;;;5.69;52.81;99233.06;4769012;30;20421;-86
2023/12/22 04:36:44;;;;;;;1.00;1.00;;;;;;;5.84;52.31;99220.81;4783236;30;20414;-88
2023/12/22 04:39:10;;;;;;;0.90;0.90;;;;;;;5.90;52.42;99227.97;4768240;30;20479;-88
2023/12/22 04:41:38;;;;;;;0.80;0.80;;;;;;;5.86;52.44;99233.78;4783473;30;20421;-88
2023/12/22 04:44:04;;;;;;;0.52;0.52;;;;;;;5.85;52.43;99232.97;4783523;30;20504;-89
2023/12/22 04:46:30;;;;;;;0.50;0.50;;;;;;;5.98;52.14;99229.78;4783345;30;20430;-88
2023/12/22 04:48:56;;;;;;;0.75;0.60;;;;;;;6.09;51.67;99231.16;4769363;30;20460;-89
2023/12/22 04:51:22;;;;;;;0.60;0.60;;;;;;;6.07;51.61;99236.59;4768829;30;20429;-88
2023/12/22 04:53:47;;;;;;;0.60;0.60;;;;;;;6.07;51.74;99225.28;4783916;30;20410;-87
2023/12/22 04:56:13;;;;;;;0.80;0.50;;;;;;;6.21;51.68;99226.28;4769387;30;20996;-87
2023/12/22 04:58:38;;;;;;;0.63;0.57;;;;;;;6.18;51.61;99231.94;4776313;30;20841;-86
2023/12/22 05:01:04;;;;;;;1.50;1.20;;;;;;;6.18;52.01;99234.56;4773784;30;20413;-87
2023/12/22 05:03:30;;;;;;;1.15;0.90;;;;;;;6.11;52.08;99237.88;4786333;29;20809;-87
2023/12/22 05:05:55;;;;;;;0.40;0.40;;;;;;;6.07;52.30;99233.97;4780476;29;20435;-88
2023/12/22 05:08:21;;;;;;;0.97;0.97;;;;;;;5.93;52.89;99239.97;4771278;30;20491;-86
2023/12/22 05:10:47;;;;;;;0.52;0.52;;;;;;;5.93;52.81;99245.22;4784161;30;20412;-87
2023/12/22 05:13:12;;;;;;;0.60;0.60;;;;;;;5.83;53.09;99242.81;4766882;30;20410;-88
2023/12/22 05:15:38;;;;;;;0.57;0.57;;;;;;;5.92;52.91;99243.59;4777719;29;20425;-87
2023/12/22 05:18:11;;;;;;;1.23;1.13;;;;;;;5.87;52.86;99249.38;4785891;30;20846;-85
2023/12/22 05:20:37;;;;;;;0.40;0.40;;;;;;;6.04;52.55;99257.19;4769089;30;20798;-87
2023/12/22 05:23:03;;;;;;;4.03;0.73;;;;;;;6.19;52.09;99244.88;4774511;29;20942;-88
2023/12/22 05:25:29;;;;;;;0.30;0.30;;;;;;;6.30;51.80;99236.56;4794973;29;20408;-91
2023/12/22 05:27:54;;;;;;;1.17;1.15;;;;;;;6.38;51.63;99227.78;4792152;29;20483;-86
2023/12/22 05:30:20;;;;;;;0.50;0.50;;;;;;;6.42;51.42;99234.31;4801125;29;20481;-86
2023/12/22 05:32:49;;;;;;;1.80;1.58;;;;;;;6.31;52.04;99230.31;4783555;29;20421;-88
2023/12/22 05:35:15;;;;;;;0.70;0.70;;;;;;;6.27;52.36;99236.13;4805156;29;20416;-86
2023/12/22 05:37:40;;;;;;;0.32;0.32;;;;;;;6.44;51.60;99248.09;4800712;29;20481;-87
2023/12/22 05:40:07;;;;;;;0.20;0.20;;;;;;;6.47;51.32;99247.75;4793830;29;20420;-89
2023/12/22 05:42:33;;;;;;;0.60;0.60;;;;;;;6.47;51.42;99249.59;4803687;29;20408;-86
2023/12/22 05:44:59;;;;;;;0.28;0.28;;;;;;;6.51;51.38;99259.56;4798124;29;20420;-87
2023/12/22 05:47:25;;;;;;;0.80;0.80;;;;;;;6.53;51.63;99275.19;4788302;29;20436;-88
2023/12/22 05:49:51;;;;;;;0.23;0.23;;;;;;;6.56;51.58;99279.28;4787543;30;20416;-88
2023/12/22 05:52:17;;;;;;;0.57;0.57;;;;;;;6.53;51.92;99301.50;4787959;30;20417;-87
2023/12/22 05:54:44;;;;;;;1.93;1.37;;;;;;;5.83;54.31;99345.38;4788337;30;20408;-86
2023/12/22 05:57:09;;;;;;;0.65;0.65;;;;;;;5.17;56.11;99374.56;4794414;30;20830;-87
2023/12/22 05:59:35;;;;;;;0.87;0.83;;;;;;;5.07;56.54;99367.84;4788991;30;20428;-87
2023/12/22 06:02:02;;;;;;;0.38;0.38;;;;;;;5.16;56.69;99374.72;4788371;30;20416;-87
2023/12/22 06:04:28;;;;;;;1.67;1.57;;;;;;;5.40;56.28;99376.47;4787659;29;20412;-88
2023/12/22 06:06:54;;;;;;;1.20;1.20;;;;;;;5.67;55.37;99369.97;4787342;29;20435;-87
2023/12/22 06:09:21;;;;;;;0.93;0.90;;;;;;;5.51;56.17;99367.38;4786611;30;20762;-86
2023/12/22 06:11:48;;;;;;;0.60;0.60;;;;;;;5.46;56.47;99385.50;4787853;29;20409;-88
2023/12/22 06:14:14;;;;;;;0.47;0.47;;;;;;;5.52;56.37;99379.56;4788846;29;20431;-88
2023/12/22 06:16:40;;;;;;;1.15;1.05;;;;;;;5.72;55.89;99393.91;4786684;30;20412;-86
2023/12/22 06:19:06;;;;;;;0.50;0.50;;;;;;;5.76;55.90;99402.28;4788337;29;20791;-87
2023/12/22 06:21:32;;;;;;;1.00;1.00;;;;;;;5.97;55.72;99387.75;4789945;30;20416;-87
2023/12/22 06:23:58;;;;;;;0.82;0.82;;;;;;;6.12;54.62;99393.91;4791261;30;20412;-88
2023/12/22 06:26:23;;;;;;;0.60;0.60;;;;;;;6.12;55.04;99393.91;4790016;29;20515;-87
2023/12/22 06:28:49;;;;;;;0.57;0.57;;;;;;;6.21;54.41;99398.16;4788623;30;20438;-87
2023/12/22 06:31:20;;;;;;;0.65;0.65;;;;;;;6.30;54.26;99402.38;4790793;30;20804;-89
2023/12/22 06:33:46;;;;;;;0.32;0.32;;;;;;;6.44;54.02;99402.59;4791107;29;20404;-89
2023/12/22 06:36:22;;;;;;;0.57;0.57;;;;;;;6.21;54.77;99405.22;4792292;30;20777;-88
2023/12/22 06:38:49;;;;;;;0.50;0.50;;;;;;;6.16;54.50;99400.47;4790972;30;20414;-88
2023/12/22 06:41:20;;;;;;;0.55;0.55;;;;;;;6.30;54.58;99407.63;4789532;30;20773;-88
2023/12/22 06:43:56;;;;;;;;;;;;;;;;;;;;;
2023/12/22 06:46:23;;;;;;;0.38;0.28;;;;;;;6.53;54.11;99387.56;4791634;30;20463;-89
2023/12/22 06:48:53;;;;;;;0.50;0.50;;;;;;;6.82;53.83;99365.75;4791190;30;20420;-91
2023/12/22 06:51:26;;;;;;;0.52;0.50;;;;;;;7.01;53.33;99341.53;4794079;30;20419;-88
2023/12/22 06:53:55;;;;;;;0.30;0.30;;;;;;;7.21;53.25;99336.53;4776791;30;20872;-88
2023/12/22 06:56:26;;;;;;;0.22;0.22;;;;;;;7.35;52.95;99320.91;4793732;30;20436;-92
2023/12/22 06:58:53;;;;;;;0.30;0.30;;;;;;;7.54;52.93;99333.50;4792056;30;20431;-88
2023/12/22 07:01:27;;;;;;;0.70;0.70;;;;;;;7.73;53.08;99331.31;4791976;30;20416;-90
2023/12/22 07:03:53;;;;;;;0.57;0.57;;;;;;;7.83;53.71;99326.53;4792969;30;20461;-88
2023/12/22 07:06:20;;;;;;;0.20;0.20;;;;;;;7.98;53.59;99337.88;4793832;30;20538;-89
2023/12/22 07:09:32;;;;;;;0.73;0.70;;;;;;;8.09;53.85;99338.41;4785488;30;20419;-93
2023/12/22 07:12:03;;;;;;;1.10;1.10;;;;;;;8.32;53.54;99332.91;4766873;30;20406;-94
2023/12/22 07:14:33;;;;;;;1.20;0.70;;;;;;;8.53;54.18;99355.88;4774643;29;20409;-92
2023/12/22 07:17:01;;;;;;;0.35;0.35;;;;;;;8.63;54.24;99343.19;4798819;30;20413;-90
2023/12/22 07:19:26;;;;;;;0.30;0.30;;;;;;;8.88;54.38;99362.06;4778918;30;20517;-90
2023/12/22 07:21:55;;;;;;;0.80;0.52;;;;;;;8.91;54.51;99352.94;4794210;29;20416;-92
2023/12/22 07:24:24;;;;;;;0.38;0.38;;;;;;;9.05;54.75;99332.69;4797555;29;20416;-92
2023/12/22 07:26:49;;;;;;;0.30;0.30;;;;;;;9.19;54.20;99345.00;4802500;29;20440;-92
2023/12/22 07:29:29;;;;;;;0.60;0.43;;;;;;;9.26;54.12;99347.69;4805418;29;20415;-95
2023/12/22 07:31:55;;;;;;;0.70;0.70;;;;;;;9.40;54.54;99370.53;4813425;29;20412;-89
2023/12/22 07:34:22;;;;;;;0.30;0.30;;;;;;;9.48;54.74;99373.00;4814062;29;20438;-90
2023/12/22 07:36:48;;;;;;;2.27;1.37;;;;;;;9.61;53.98;99369.59;4798546;29;20490;-89
2023/12/22 07:39:17;;;;;;;0.50;0.50;;;;;;;9.64;54.13;99373.72;4770076;30;20524;-90
2023/12/22 07:41:44;;;;;;;1.65;1.55;;;;;;;9.77;53.50;99369.25;4805036;29;20766;-87
2023/12/22 07:44:11;;;;;;;0.30;0.30;;;;;;;9.75;53.56;99365.19;4792904;29;20427;-87
2023/12/22 07:46:36;;;;;;;2.58;1.70;;;;;;;9.95;53.24;99366.06;4793643;30;20424;-89
2023/12/22 07:49:02;;;;;;;0.68;0.68;;;;;;;9.94;53.17;99350.41;4791916;29;20412;-88
2023/12/22 07:51:28;;;;;;;0.47;0.47;;;;;;;10.14;53.11;99371.66;4808366;29;20481;-88
2023/12/22 07:53:54;;;;;;;0.87;0.87;;;;;;;10.23;53.13;99369.63;4791745;29;20404;-89
2023/12/22 07:56:24;;;;;;;0.90;0.90;;;;;;;10.30;52.55;99376.56;4791919;29;20405;-89
2023/12/22 07:58:53;;;;;;;0.30;0.30;;;;;;;10.41;52.16;99380.47;4792699;29;21204;-89
2023/12/22 08:01:22;;;;;;;0.20;0.20;;;;;;;10.37;52.25;99387.22;4793598;29;20902;-85
2023/12/22 08:03:48;;;;;;;0.30;0.30;;;;;;;10.41;51.82;99392.91;4782390;30;20783;-88
2023/12/22 08:06:14;;;;;;;0.43;0.43;;;;;;;10.58;51.40;99404.75;4803230;29;20468;-89
2023/12/22 08:08:44;;;;;;;0.73;0.73;;;;;;;10.52;51.36;99394.97;4772425;30;20410;-90
2023/12/22 08:11:09;;;;;;;1.70;1.60;;;;;;;10.56;51.28;99405.97;4771425;30;20441;-89
2023/12/22 08:13:35;;;;;;;0.33;0.33;;;;;;;10.65;51.21;99433.91;4772450;30;20786;-89
2023/12/22 08:16:02;;;;;;;0.50;0.50;;;;;;;10.76;51.02;99422.69;4775888;30;20501;-89
2023/12/22 08:18:28;;;;;;;0.43;0.43;;;;;;;10.93;50.84;99420.50;4792674;30;20494;-89
2023/12/22 08:20:54;;;;;;;1.25;1.15;;;;;;;11.03;50.53;99423.53;4787680;29;20446;-89
2023/12/22 08:23:21;;;;;;;0.80;0.80;;;;;;;11.02;50.69;99429.03;4802629;29;20441;-90
2023/12/22 08:25:48;;;;;;;0.40;0.30;;;;;;;11.00;50.84;99423.94;4775098;30;20422;-89
2023/12/22 08:28:18;;;;;;;0.40;0.40;;;;;;;11.08;51.02;99429.03;4773762;30;20499;-89
2023/12/22 08:30:47;;;;;;;0.30;0.30;;;;;;;11.17;51.02;99442.91;4788054;29;20922;-89
2023/12/22 08:33:13;;;;;;;0.20;0.20;;;;;;;11.21;50.89;99451.28;4787912;29;20787;-87
2023/12/22 08:35:45;;;;;;;0.13;0.13;;;;;;;11.22;51.05;99451.06;4775345;30;20934;-91
2023/12/22 08:38:13;;;;;;;0.30;0.30;;;;;;;11.32;50.88;99449.84;4793401;29;20463;-87
2023/12/22 08:40:38;;;;;;;0.30;0.30;;;;;;;11.35;50.52;99444.94;4761337;30;20490;-88
2023/12/22 08:43:14;;;;;;;0.38;0.38;;;;;;;11.40;50.46;99439.03;4791496;30;20910;-89
2023/12/22 08:45:48;;;;;;;0.30;0.30;;;;;;;11.28;50.56;99431.66;4776593;29;20437;-92
2023/12/22 08:48:14;;;;;;;0.30;0.30;;;;;;;11.37;50.35;99434.91;4806486;29;20426;-86
2023/12/22 08:50:42;;;;;;;0.30;0.30;;;;;;;11.58;50.09;99433.06;4775067;30;21519;-90
2023/12/22 08:53:08;;;;;;;0.17;0.17;;;;;;;11.58;50.12;99436.53;4789084;30;20517;-90
2023/12/22 08:55:36;;;;;;;0.50;0.30;;;;;;;11.76;50.29;99435.88;4792086;30;20460;-89
2023/12/22 08:58:16;;;;;;;1.50;0.77;;;;;;;11.82;49.87;99434.22;4793891;30;20428;-92
2023/12/22 09:00:47;;;;;;;0.35;0.35;;;;;;;11.77;49.62;99444.63;4787117;30;20456;-92
2023/12/22 09:03:13;;;;;;;0.50;0.50;;;;;;;11.86;49.39;99448.69;4783254;30;20419;-93
2023/12/22 09:05:39;;;;;;;0.20;0.20;;;;;;;11.96;48.91;99441.13;4791558;30;20424;-89
2023/12/22 09:08:10;;;;;;;0.68;0.68;;;;;;;11.92;48.55;99436.44;4789796;30;20424;-89
2023/12/22 09:10:38;;;;;;;0.10;0.10;;;;;;;11.82;48.16;99410.31;4774406;30;20417;-89
2023/12/22 09:13:06;;;;;;;0.40;0.40;;;;;;;11.87;47.93;99402.53;4773296;30;20470;-89
2023/12/22 09:15:32;;;;;;;0.10;0.10;;;;;;;12.12;47.75;99380.56;4777562;30;20412;-90
2023/12/22 09:18:00;;;;;;;1.47;0.43;;;;;;;12.15;47.37;99372.19;4788694;30;20516;-87
2023/12/22 09:20:29;;;;;;;0.30;0.30;;;;;;;12.20;46.78;99373.16;4771958;30;20412;-87
2023/12/22 09:23:14;;;;;;;0.30;0.20;;;;;;;12.02;46.42;99383.69;4787881;29;20409;-89
2023/12/22 09:25:43;;;;;;;0.20;0.20;;;;;;;12.11;46.14;99384.28;4802123;29;20478;-88
2023/12/22 09:28:11;;;;;;;0.32;0.32;;;;;;;12.04;46.15;99386.94;4788497;30;20835;-87
2023/12/22 09:30:37;;;;;;;0.30;0.30;;;;;;;12.09;46.30;99391.63;4788587;30;20420;-87
2023/12/22 09:33:05;;;;;;;1.10;1.00;;;;;;;11.84;45.71;99400.28;4788992;29;20413;-88
2023/12/22 09:35:36;;;;;;;0.20;0.20;;;;;;;11.67;45.55;99392.81;4774779;30;20423;-87
2023/12/22 09:38:05;;;;;;;0.60;0.60;;;;;;;11.95;45.30;99385.56;4791904;30;20415;-87
2023/12/22 09:40:38;;;;;;;0.60;0.60;;;;;;;11.90;44.99;99377.38;4790044;30;20417;-88
2023/12/22 09:43:06;;;;;;;0.20;0.20;;;;;;;11.90;44.91;99383.53;4776693;30;20768;-89
2023/12/22 09:45:37;;;;;;;0.30;0.30;;;;;;;11.92;44.65;99405.41;4776006;30;20419;-89
2023/12/22 09:48:20;;;;;;;0.10;0.10;;;;;;;11.82;44.36;99416.44;4778831;30;20433;-86
2023/12/22 09:50:52;;;;;;;0.90;0.40;;;;;;;11.64;44.44;99403.03;4795920;30;20408;-89
2023/12/22 09:53:20;;;;;;;0.40;0.40;;;;;;;11.74;44.66;99403.41;4790998;30;20473;-88
2023/12/22 09:55:48;;;;;;;0.30;0.30;;;;;;;11.91;44.86;99422.34;4776404;30;20448;-88
2023/12/22 09:58:19;;;;;;;0.30;0.30;;;;;;;11.99;44.66;99413.31;4786995;29;20520;-88
2023/12/22 10:00:48;;;;;;;0.20;0.20;;;;;;;12.07;44.72;99421.06;4800720;29;20523;-87
2023/12/22 10:03:16;;;;;;;0.40;0.40;;;;;;;12.22;44.55;99405.66;4769772;30;20429;-89
2023/12/22 10:05:44;;;;;;;0.30;0.30;;;;;;;12.31;44.11;99400.09;4784080;30;20941;-88
2023/12/22 10:08:11;;;;;;;0.30;0.30;;;;;;;12.04;43.41;99403.69;4784613;29;20417;-88
2023/12/22 10:10:43;;;;;;;0.20;0.15;;;;;;;12.07;43.59;99406.97;4805674;29;20439;-87
2023/12/22 10:13:12;;;;;;;0.30;0.30;;;;;;;11.97;42.46;99396.78;4771668;30;20983;-88
2023/12/22 10:15:46;;;;;;;0.10;0.10;;;;;;;11.69;41.01;99413.84;4799763;29;20414;-86
2023/12/22 10:18:12;;;;;;;0.20;0.20;;;;;;;11.52;40.13;99421.41;4767542;30;21036;-87
2023/12/22 10:20:42;;;;;;;0.70;0.47;;;;;;;11.50;39.97;99433.28;4761184;30;20414;-88
2023/12/22 10:23:12;;;;;;;0.17;0.17;;;;;;;11.56;40.23;99427.97;4756192;30;20477;-88
2023/12/22 10:25:47;;;;;;;0.20;0.20;;;;;;;11.66;40.13;99430.16;4769559;30;20486;-87
2023/12/22 10:28:16;;;;;;;1.00;0.57;;;;;;;11.75;40.00;99428.09;4739496;30;20432;-87
2023/12/22 10:30:45;;;;;;;0.22;0.22;;;;;;;11.73;39.78;99425.66;4736861;30;20419;-87
2023/12/22 10:33:11;;;;;;;0.57;0.30;;;;;;;11.48;39.95;99436.94;4764396;30;20412;-87
2023/12/22 10:35:44;;;;;;;0.20;0.20;;;;;;;11.40;40.42;99437.16;4764076;30;20483;-89
2023/12/22 10:38:13;;;;;;;0.30;0.30;;;;;;;11.47;40.40;99426.56;4749228;30;20428;-87
2023/12/22 10:40:44;;;;;;;0.30;0.20;;;;;;;11.83;40.01;99414.63;4751987;30;20416;-89
2023/12/22 10:43:13;;;;;;;0.22;0.17;;;;;;;11.94;39.59;99389.25;4753594;30;20466;-87
2023/12/22 10:45:42;;;;;;;0.10;0.10;;;;;;;11.98;38.94;99399.25;4753879;30;20431;-87
2023/12/22 10:48:12;;;;;;;0.30;0.30;;;;;;;11.75;38.29;99412.19;4791219;29;20431;-86
2023/12/22 10:50:41;;;;;;;0.10;0.10;;;;;;;11.36;38.82;99413.91;4824535;29;20440;-88
2023/12/22 10:53:10;;;;;;;0.30;0.30;;;;;;;11.19;38.97;99418.84;4825588;29;20413;-87
2023/12/22 10:55:39;;;;;;;0.32;0.30;;;;;;;11.00;39.21;99420.47;4808132;29;20503;-86
2023/12/22 10:58:09;;;;;;;0.80;0.75;;;;;;;11.09;39.06;99404.16;4808261;29;20440;-89
2023/12/22 11:00:47;;;;;;;0.17;0.17;;;;;;;11.05;38.98;99391.50;4824898;29;20465;-87
2023/12/22 11:03:26;;;;;;;1.10;0.70;;;;;;;11.18;38.58;99394.16;4792226;29;20420;-87
2023/12/22 11:06:01;;;;;;;0.10;0.10;;;;;;;11.25;38.69;99399.44;4794616;29;20442;-87
2023/12/22 11:08:31;;;;;;;0.20;0.20;;;;;;;11.34;39.06;99387.56;4815198;29;20504;-88
2023/12/22 11:14:40;;;;;;;1.10;0.50;;;;;;;11.11;37.67;99377.44;4824855;29;20403;-88
2023/12/22 11:17:11;;;;;;;0.13;0.13;;;;;;;11.15;37.40;99388.44;4825100;29;20423;-88
2023/12/22 11:19:39;;;;;;;2.35;1.00;;;;;;;11.17;37.63;99381.09;4811442;29;20799;-87
2023/12/22 11:22:09;;;;;;;0.15;0.15;;;;;;;11.27;37.75;99376.16;4795085;29;20421;-86
2023/12/22 11:24:37;;;;;;;0.10;0.10;;;;;;;11.45;37.99;99389.59;4804293;29;20408;-87
2023/12/22 11:27:09;;;;;;;0.10;0.10;;;;;;;11.38;38.09;99377.34;4787372;30;20503;-87
2023/12/22 11:29:38;;;;;;;0.30;0.22;;;;;;;11.50;37.91;99404.09;4771969;30;20413;-88
2023/12/22 11:32:05;;;;;;;0.20;0.20;;;;;;;11.50;37.71;99398.78;4801426;29;20422;-91
2023/12/22 11:34:34;;;;;;;0.50;0.35;;;;;;;11.57;38.07;99388.97;4788000;30;20414;-88
2023/12/22 11:37:03;;;;;;;0.75;0.75;;;;;;;11.15;37.88;99386.59;4789798;29;20414;-88
2023/12/22 11:39:29;;;;;;;0.20;0.20;;;;;;;11.37;38.37;99389.81;4789243;30;20402;-90
2023/12/22 11:41:56;;;;;;;0.25;0.25;;;;;;;11.31;38.07;99398.63;4788589;30;20413;-89
2023/12/22 11:44:27;;;;;;;0.20;0.20;;;;;;;11.42;37.57;99408.59;4773030;30;20492;-87
